Terminal Aerodrome Forecast
Issued by NWS Sterling, VA

Home | Current Version | Previous Version | Text Only | Print | Product List | Glossary On
Versions: 1 2 3 4 5 6 7 8 9 10 11 12 13 14 15 16 17 18 19 20 21 22 23 24 25 26 27
000
FTUS41 KLWX 302053 AAA
TAFIAD
TAF AMD
KIAD 302053Z 3021/0124 21009KT P6SM VCTS BKN060CB
     FM010000 20005KT P6SM VCTS BKN050CB
     FM010500 27004KT P6SM VCTS OVC050CB
     FM010700 27004KT P6SM OVC060
     FM010900 00000KT P6SM BKN060
     FM011300 26004KT P6SM SCT200
     FM011400 27005KT P6SM SCT050=

USA.gov is the U.S. government's official web portal to all federal, state and local government web resources and services.